createdAt,value
2019-05-26T00:00:23.761Z,594.2
2019-05-26T00:01:26.198Z,594.2
2019-05-26T00:02:28.639Z,594
2019-05-26T00:03:31.074Z,594.3
2019-05-26T00:04:33.492Z,594.3
2019-05-26T00:05:35.647Z,594.5
2019-05-26T00:06:37.499Z,594.3
2019-05-26T00:07:39.926Z,594
2019-05-26T00:08:42.088Z,594.5
2019-05-26T00:09:44.231Z,594.5
2019-05-26T00:10:46.728Z,594.2
2019-05-26T00:11:49.147Z,594.3
2019-05-26T00:12:50.746Z,594.7
2019-05-26T00:13:52.892Z,594.5
2019-05-26T00:14:54.759Z,594.4
2019-05-26T00:15:57.187Z,595
2019-05-26T00:16:59.627Z,595.1
2019-05-26T00:18:02.068Z,595.4
2019-05-26T00:19:04.518Z,595.7
2019-05-26T00:20:06.929Z,595.8
2019-05-26T00:21:08.850Z,595.7
2019-05-26T00:22:10.997Z,595.9
2019-05-26T00:23:13.439Z,595.9
2019-05-26T00:24:15.877Z,596.1
2019-05-26T00:25:18.515Z,596.1
2019-05-26T00:26:20.677Z,596.1
2019-05-26T00:27:22.558Z,596.3
2019-05-26T00:28:24.713Z,596.5
2019-05-26T00:29:26.865Z,596.4
2019-05-26T00:30:29.031Z,596.3
2019-05-26T00:31:31.179Z,596.3
2019-05-26T00:32:33.653Z,596.8
2019-05-26T00:33:36.098Z,596.6
2019-05-26T00:34:38.225Z,596.7
2019-05-26T00:35:40.379Z,597.1
2019-05-26T00:36:42.794Z,596.9
2019-05-26T00:38:49.650Z,596.7
2019-05-26T00:39:51.798Z,597.1
2019-05-26T00:40:54.300Z,597.4
2019-05-26T00:41:56.736Z,597.1
2019-05-26T00:42:58.889Z,597.3
2019-05-26T00:44:01.325Z,597.1
2019-05-26T00:45:03.767Z,597.3
2019-05-26T00:46:06.197Z,597.4
2019-05-26T00:47:08.646Z,597
2019-05-26T00:48:11.251Z,597.2
2019-05-26T00:49:13.701Z,597.4
2019-05-26T00:50:15.282Z,597.1
2019-05-26T00:51:16.907Z,596.7
2019-05-26T00:52:19.353Z,597.1
2019-05-26T00:53:21.776Z,597.2
2019-05-26T00:54:23.941Z,597.4
2019-05-26T00:55:26.081Z,597.1
2019-05-26T00:56:28.504Z,597.1
2019-05-26T00:57:30.936Z,597.3
2019-05-26T00:58:33.369Z,597.2
2019-05-26T00:59:35.795Z,597.3
2019-05-26T01:00:37.956Z,597.2
2019-05-26T01:01:40.104Z,597.2
2019-05-26T01:02:42.533Z,597.2
2019-05-26T01:03:44.987Z,597
2019-05-26T01:04:47.416Z,596.8
2019-05-26T01:05:49.844Z,597.1
2019-05-26T01:06:51.717Z,597.4
2019-05-26T01:08:58.857Z,597.3
2019-05-26T01:10:01.059Z,597.7
2019-05-26T01:11:03.387Z,597.6
2019-05-26T01:12:05.819Z,597.1
2019-05-26T01:13:08.251Z,597.7
2019-05-26T01:14:10.410Z,597.8
2019-05-26T01:15:12.571Z,597.4
2019-05-26T01:16:14.735Z,597.6
2019-05-26T01:17:16.907Z,597.7
2019-05-26T01:18:19.334Z,597.7
2019-05-26T01:19:22.410Z,597.7
2019-05-26T01:20:24.555Z,597.8
2019-05-26T01:21:26.490Z,598.1
2019-05-26T01:22:28.631Z,597.9
2019-05-26T01:23:30.499Z,598
2019-05-26T01:24:32.652Z,598.3
2019-05-26T01:25:34.800Z,598.2
2019-05-26T01:26:36.933Z,597.6
2019-05-26T01:27:39.294Z,597.8
2019-05-26T01:28:41.712Z,597.6
2019-05-26T01:29:43.885Z,597.8
2019-05-26T01:30:46.055Z,598
2019-05-26T01:31:48.496Z,597.5
2019-05-26T01:32:50.658Z,597.3
2019-05-26T01:33:52.815Z,597.4
2019-05-26T01:34:55.236Z,597.4
2019-05-26T01:35:57.391Z,597.3
2019-05-26T01:36:59.820Z,597.5
2019-05-26T01:38:01.981Z,596.7
2019-05-26T01:39:04.417Z,597.2
2019-05-26T01:40:06.580Z,597.3
2019-05-26T01:41:09.012Z,596.8
2019-05-26T01:42:11.451Z,597.2
2019-05-26T01:43:13.635Z,597.3
2019-05-26T01:44:16.065Z,597.2
2019-05-26T01:45:18.257Z,597.4
2019-05-26T01:46:20.693Z,597.4
2019-05-26T01:47:23.462Z,597.2
2019-05-26T01:48:25.616Z,597.1
2019-05-26T01:49:27.840Z,597.7
2019-05-26T01:50:30.288Z,597.6
2019-05-26T01:51:32.739Z,597.7
2019-05-26T01:52:34.712Z,597.3
2019-05-26T01:53:36.875Z,597.9
2019-05-26T01:55:44.318Z,597.6
2019-05-26T01:56:46.482Z,597.6
2019-05-26T01:57:48.915Z,598
2019-05-26T01:58:51.350Z,597.5
2019-05-26T01:59:53.505Z,598
2019-05-26T02:00:55.648Z,598
2019-05-26T02:03:02.801Z,597.7
2019-05-26T02:04:04.956Z,597.5
2019-05-26T02:05:07.452Z,597.3
2019-05-26T02:06:09.608Z,597.3
2019-05-26T02:07:12.035Z,597
2019-05-26T02:08:14.661Z,597.1
2019-05-26T02:09:17.300Z,597
2019-05-26T02:10:19.455Z,596.8
2019-05-26T02:11:21.862Z,596.7
2019-05-26T02:12:23.753Z,597.1
2019-05-26T02:13:26.187Z,596.9
2019-05-26T02:14:28.605Z,596.6
2019-05-26T02:15:30.769Z,597
2019-05-26T02:16:33.196Z,596.8
2019-05-26T02:17:35.647Z,596.5
2019-05-26T02:18:38.077Z,596.8
2019-05-26T02:19:40.502Z,597
2019-05-26T02:20:42.932Z,596.5
2019-05-26T02:21:44.815Z,596.8
2019-05-26T02:22:47.237Z,597.2
2019-05-26T02:23:49.663Z,597
2019-05-26T02:24:51.583Z,596.6
2019-05-26T02:25:54.036Z,596.8
2019-05-26T02:26:56.213Z,596.7
2019-05-26T02:27:58.637Z,596.8
2019-05-26T02:29:01.670Z,597.1
2019-05-26T02:30:04.096Z,596.7
2019-05-26T02:31:06.514Z,596.9
2019-05-26T02:32:08.936Z,596.8
2019-05-26T02:33:11.192Z,596.9
2019-05-26T02:34:13.338Z,597
2019-05-26T02:35:15.519Z,596.7
2019-05-26T02:36:17.936Z,596.7
2019-05-26T02:37:20.355Z,597.1
2019-05-26T02:39:27.474Z,597
2019-05-26T02:40:29.910Z,597.2
2019-05-26T02:41:32.338Z,597.3
2019-05-26T02:42:34.791Z,597.2
2019-05-26T02:43:37.227Z,597.5
2019-05-26T02:44:39.646Z,597.5
2019-05-26T02:45:42.076Z,597.5
2019-05-26T02:46:44.524Z,597.4
2019-05-26T02:47:46.709Z,597.3
2019-05-26T02:48:49.149Z,597.4
2019-05-26T02:49:51.570Z,597.5
2019-05-26T02:50:53.742Z,597.3
2019-05-26T02:51:56.195Z,597.1
2019-05-26T02:52:58.614Z,597.2
2019-05-26T02:53:59.959Z,597.5
2019-05-26T02:55:02.128Z,597.3
2019-05-26T02:56:04.290Z,597.4
2019-05-26T02:57:06.715Z,597.5
2019-05-26T02:58:09.143Z,597.7
2019-05-26T02:59:11.564Z,597.4
2019-05-26T03:00:13.995Z,597.6
2019-05-26T03:01:16.165Z,597.6
2019-05-26T03:02:18.613Z,597.6
2019-05-26T03:03:21.035Z,597.8
2019-05-26T03:04:22.964Z,597.6
2019-05-26T03:05:25.395Z,597.5
2019-05-26T03:06:27.528Z,597.8
2019-05-26T03:07:29.964Z,597.6
2019-05-26T03:08:32.404Z,597.5
2019-05-26T03:09:34.848Z,597.6
2019-05-26T03:10:36.998Z,597.7
2019-05-26T03:11:39.420Z,597.6
2019-05-26T03:12:41.577Z,597.7
2019-05-26T03:13:43.734Z,597.7
2019-05-26T03:14:46.166Z,597.7
2019-05-26T03:15:48.370Z,597.8
2019-05-26T03:16:50.815Z,598
2019-05-26T03:17:53.244Z,598
2019-05-26T03:18:55.405Z,597.6
2019-05-26T03:19:57.846Z,597.8
2019-05-26T03:21:00.032Z,597.7
2019-05-26T03:22:02.469Z,597.5
2019-05-26T03:23:04.916Z,597.5
2019-05-26T03:24:07.074Z,597.9
2019-05-26T03:25:09.235Z,597.5
2019-05-26T03:26:11.674Z,597.9
2019-05-26T03:27:13.819Z,597.7
2019-05-26T03:28:16.271Z,598
2019-05-26T03:29:18.777Z,598
2019-05-26T03:30:21.314Z,598
2019-05-26T03:31:23.736Z,598
2019-05-26T03:32:26.204Z,597.7
2019-05-26T03:33:28.372Z,598.1
2019-05-26T03:34:30.852Z,598.1
2019-05-26T03:35:33.007Z,598.1
2019-05-26T03:36:35.287Z,598.1
2019-05-26T03:37:37.716Z,597.8
2019-05-26T03:38:39.862Z,597.9
2019-05-26T03:40:47.005Z,597.8
2019-05-26T03:41:49.435Z,597.8
2019-05-26T03:42:51.582Z,597.8
2019-05-26T03:43:53.751Z,597.6
2019-05-26T03:44:56.178Z,597.5
2019-05-26T03:45:58.345Z,597.8
2019-05-26T03:47:00.773Z,597.7
2019-05-26T03:48:03.208Z,597.4
2019-05-26T03:49:05.376Z,597.5
2019-05-26T03:50:07.528Z,597.7
2019-05-26T03:51:09.962Z,597.7
2019-05-26T03:52:12.539Z,597.2
2019-05-26T03:53:14.969Z,597.1
2019-05-26T03:54:17.404Z,596.8
2019-05-26T03:55:19.291Z,596.5
2019-05-26T03:56:21.481Z,596.8
2019-05-26T03:57:23.913Z,596.7
2019-05-26T03:58:26.352Z,597.1
2019-05-26T03:59:28.523Z,596.6
2019-05-26T04:00:30.674Z,596.9
2019-05-26T04:01:33.729Z,596.6
2019-05-26T04:02:36.155Z,597.2
2019-05-26T04:03:38.584Z,596.9
2019-05-26T04:04:41.042Z,596.7
2019-05-26T04:05:42.924Z,596.8
2019-05-26T04:06:45.064Z,596.4
2019-05-26T04:07:47.490Z,596.8
2019-05-26T04:08:49.659Z,596.7
2019-05-26T04:10:57.068Z,596.7
2019-05-26T04:11:59.495Z,596.7
2019-05-26T04:13:01.646Z,596.3
2019-05-26T04:14:03.883Z,596.7
2019-05-26T04:15:06.054Z,596.5
2019-05-26T04:16:08.472Z,596.8
2019-05-26T04:17:10.904Z,596.3
2019-05-26T04:18:13.042Z,596.2
2019-05-26T04:19:15.574Z,596
2019-05-26T04:20:17.759Z,596.3
2019-05-26T04:21:20.181Z,596.2
2019-05-26T04:22:22.614Z,596.1
2019-05-26T04:23:24.763Z,595.8
2019-05-26T04:24:26.913Z,596.1
2019-05-26T04:25:29.067Z,595.8
2019-05-26T04:26:31.504Z,595.9
2019-05-26T04:27:33.931Z,595.8
2019-05-26T04:28:36.075Z,595.7
2019-05-26T04:29:38.224Z,595.9
2019-05-26T04:30:40.384Z,595.7
2019-05-26T04:31:42.595Z,595.8
2019-05-26T04:32:44.487Z,596.2
2019-05-26T04:33:46.922Z,595.7
2019-05-26T04:34:49.368Z,595.3
2019-05-26T04:35:51.538Z,595.8
2019-05-26T04:36:53.972Z,595.5
2019-05-26T04:37:56.128Z,595.7
2019-05-26T04:38:58.669Z,595.1
2019-05-26T04:40:01.112Z,595.3
2019-05-26T04:41:03.274Z,595.6
2019-05-26T04:42:05.435Z,595.3
2019-05-26T04:43:07.866Z,595.4
2019-05-26T04:44:10.036Z,595.8
2019-05-26T04:45:12.180Z,595.7
2019-05-26T04:46:14.073Z,595.9
2019-05-26T04:47:16.501Z,595.8
2019-05-26T04:48:18.944Z,595.8
2019-05-26T04:49:21.376Z,595.5
2019-05-26T04:50:23.864Z,595.7
2019-05-26T04:51:26.024Z,595.6
2019-05-26T04:52:27.877Z,595.6
2019-05-26T04:53:30.040Z,595.6
2019-05-26T04:54:32.190Z,595.8
2019-05-26T04:55:34.623Z,595.5
2019-05-26T04:56:37.070Z,595.5
2019-05-26T04:57:39.531Z,595.5
2019-05-26T04:58:41.688Z,595.8
2019-05-26T04:59:44.176Z,595.5
2019-05-26T05:00:46.620Z,595.5
2019-05-26T05:01:49.059Z,595.6
2019-05-26T05:02:51.480Z,595.5
2019-05-26T05:03:53.376Z,595.6
2019-05-26T05:04:55.515Z,595.4
2019-05-26T05:05:57.424Z,595.1
2019-05-26T05:06:59.845Z,595.3
2019-05-26T05:08:02.027Z,595.1
2019-05-26T05:09:04.178Z,595.1
2019-05-26T05:10:06.609Z,594.8
2019-05-26T05:11:09.043Z,594.7
2019-05-26T05:12:11.243Z,594.5
2019-05-26T05:13:13.471Z,594.8
2019-05-26T05:14:15.629Z,594.4
2019-05-26T05:15:18.070Z,594.4
2019-05-26T05:16:20.257Z,595.3
2019-05-26T05:17:22.391Z,594.8
2019-05-26T05:18:24.853Z,594.5
2019-05-26T05:19:26.723Z,594.9
2019-05-26T05:20:29.147Z,594.6
2019-05-26T05:21:31.329Z,594.7
2019-05-26T05:22:33.761Z,594.5
2019-05-26T05:23:35.679Z,594.6
2019-05-26T05:24:38.093Z,594.2
2019-05-26T05:25:40.423Z,594
2019-05-26T05:26:42.857Z,594.6
2019-05-26T05:27:45.016Z,593.9
2019-05-26T05:28:47.461Z,593.9
2019-05-26T05:29:49.335Z,594.1
2019-05-26T05:30:51.767Z,593.9
2019-05-26T05:31:54.241Z,594
2019-05-26T05:32:56.714Z,593.7
2019-05-26T05:33:58.859Z,594
2019-05-26T05:35:01.599Z,593.7
2019-05-26T05:36:03.779Z,593.8
2019-05-26T05:37:06.773Z,593.7
2019-05-26T05:38:09.205Z,593.5
2019-05-26T05:39:11.353Z,593.3
2019-05-26T05:40:13.787Z,593.4
2019-05-26T05:41:16.216Z,593.6
2019-05-26T05:42:18.675Z,593.7
2019-05-26T05:43:20.527Z,593.9
2019-05-26T05:44:22.986Z,593.6
2019-05-26T05:45:25.414Z,593.5
2019-05-26T05:46:27.855Z,593.5
2019-05-26T05:47:29.441Z,593.8
2019-05-26T05:48:31.873Z,593.7
2019-05-26T05:49:34.313Z,594
2019-05-26T05:51:41.441Z,594.1
2019-05-26T05:52:43.607Z,594
2019-05-26T05:53:45.481Z,594.2
2019-05-26T05:54:47.626Z,593.8
2019-05-26T05:55:50.051Z,593.9
2019-05-26T05:57:58.398Z,593.3
2019-05-26T05:59:00.563Z,593.3
2019-05-26T06:00:03.088Z,593.5
2019-05-26T06:01:05.256Z,593.2
2019-05-26T06:02:07.409Z,593.1
2019-05-26T06:03:09.843Z,593.5
2019-05-26T06:04:12.259Z,593.5
2019-05-26T06:05:14.407Z,593.6
2019-05-26T06:06:16.275Z,593.3
2019-05-26T06:07:18.411Z,593.2
2019-05-26T06:08:21.119Z,593.3
2019-05-26T06:09:23.543Z,593.2
2019-05-26T06:10:25.971Z,593.3
2019-05-26T06:11:28.399Z,593.1
2019-05-26T06:12:30.844Z,592.8
2019-05-26T06:13:33.261Z,593.1
2019-05-26T06:14:35.793Z,593.4
2019-05-26T06:15:38.221Z,592.9
2019-05-26T06:16:40.648Z,593.2
2019-05-26T06:17:42.527Z,592.6
2019-05-26T06:18:44.951Z,592.9
2019-05-26T06:19:47.408Z,593.2
2019-05-26T06:20:49.857Z,593.3
2019-05-26T06:21:52.662Z,593.1
2019-05-26T06:22:54.813Z,592.9
2019-05-26T06:23:56.973Z,593.2
2019-05-26T06:24:59.454Z,593.3
2019-05-26T06:26:01.922Z,593.3
2019-05-26T06:27:04.339Z,593.1
2019-05-26T06:28:06.771Z,593.5
2019-05-26T06:29:09.236Z,593.3
2019-05-26T06:30:11.392Z,593.5
2019-05-26T06:31:13.831Z,593.5
2019-05-26T06:32:17.120Z,593.3
2019-05-26T06:33:19.597Z,593.1
2019-05-26T06:34:22.229Z,593.4
2019-05-26T06:35:24.647Z,593.3
2019-05-26T06:36:26.806Z,593.3
2019-05-26T06:37:28.957Z,593.6
2019-05-26T06:38:31.112Z,593.1
2019-05-26T06:39:33.710Z,593.6
2019-05-26T06:40:35.661Z,593.9
2019-05-26T06:41:37.799Z,593.2
2019-05-26T06:42:39.381Z,593.4
2019-05-26T06:43:41.825Z,593.3
2019-05-26T06:45:49.235Z,593.5
2019-05-26T06:46:51.665Z,593.2
2019-05-26T06:47:54.092Z,593.1
2019-05-26T06:48:56.524Z,593
2019-05-26T06:49:59.624Z,593.1
2019-05-26T06:51:02.040Z,592.8
2019-05-26T06:52:04.405Z,592.9
2019-05-26T06:53:06.569Z,592.7
2019-05-26T06:54:09.046Z,592.8
2019-05-26T06:55:11.473Z,592.5
2019-05-26T06:56:13.914Z,592.4
2019-05-26T06:57:16.343Z,592.4
2019-05-26T06:58:18.520Z,592.3
2019-05-26T06:59:20.673Z,592.5
2019-05-26T07:00:23.311Z,592.4
2019-05-26T07:01:25.730Z,592.3
2019-05-26T07:02:28.164Z,592
2019-05-26T07:03:30.326Z,592.1
2019-05-26T07:04:32.753Z,592
2019-05-26T07:05:35.191Z,592.1
2019-05-26T07:06:37.633Z,591.9
2019-05-26T07:07:40.075Z,592.1
2019-05-26T07:08:42.122Z,591.9
2019-05-26T07:09:44.591Z,591.7
2019-05-26T07:10:46.749Z,591.7
2019-05-26T07:12:54.171Z,592
2019-05-26T07:13:56.611Z,592.1
2019-05-26T07:14:58.500Z,592.3
2019-05-26T07:16:00.938Z,592.1
2019-05-26T07:17:03.099Z,592.2
2019-05-26T07:18:05.529Z,592.3
2019-05-26T07:19:08.567Z,592.2
2019-05-26T07:20:11.028Z,592.2
2019-05-26T07:21:13.462Z,592.2
2019-05-26T07:22:15.902Z,591.9
2019-05-26T07:23:18.065Z,591.5
2019-05-26T07:24:20.497Z,591.6
2019-05-26T07:25:22.651Z,591.5
2019-05-26T07:26:25.085Z,591.6
2019-05-26T07:27:27.517Z,591
2019-05-26T07:28:29.707Z,590.7
2019-05-26T07:29:32.139Z,591
2019-05-26T07:30:34.305Z,591.1
2019-05-26T07:31:36.737Z,590.5
2019-05-26T07:32:38.907Z,590.9
2019-05-26T07:33:41.339Z,590.6
2019-05-26T07:34:43.780Z,590.6
2019-05-26T07:35:49.595Z,590.3
2019-05-26T07:36:52.844Z,590.5
2019-05-26T07:37:55.021Z,590.6
2019-05-26T07:38:57.459Z,590.2
2019-05-26T07:39:59.958Z,590.5
2019-05-26T07:41:02.151Z,590.6
2019-05-26T07:43:09.615Z,590.7
2019-05-26T07:44:12.115Z,590.7
2019-05-26T07:45:14.273Z,590.5
2019-05-26T07:46:16.704Z,590.4
2019-05-26T07:47:18.859Z,590.6
2019-05-26T07:48:20.998Z,590.5
2019-05-26T07:49:23.131Z,591
2019-05-26T07:50:25.559Z,590.5
2019-05-26T07:51:28.002Z,590.6
2019-05-26T07:52:30.451Z,590.9
2019-05-26T07:53:32.896Z,590.9
2019-05-26T07:54:35.345Z,590.9
2019-05-26T07:55:37.783Z,591.2
2019-05-26T07:56:40.214Z,591.2
2019-05-26T07:57:42.473Z,590.9
2019-05-26T07:58:44.892Z,590.9
2019-05-26T07:59:47.323Z,591
2019-05-26T08:00:49.743Z,590.9
2019-05-26T08:01:52.343Z,590.8
2019-05-26T08:02:54.778Z,591.1
2019-05-26T08:03:57.211Z,590.8
2019-05-26T08:04:59.370Z,590.6
2019-05-26T08:06:02.129Z,590.7
2019-05-26T08:07:03.985Z,590.4
2019-05-26T08:09:11.438Z,590.3
2019-05-26T08:10:13.437Z,590.5
2019-05-26T08:11:15.941Z,590.5
2019-05-26T08:13:23.494Z,590.5
2019-05-26T08:14:25.725Z,590.6
2019-05-26T08:15:28.200Z,590.7
2019-05-26T08:16:30.661Z,590.5
2019-05-26T08:17:33.113Z,590.9
2019-05-26T08:18:35.278Z,591.1
2019-05-26T08:19:38.295Z,591.1
2019-05-26T08:20:40.353Z,591
2019-05-26T08:21:42.851Z,591.1
2019-05-26T08:22:45.322Z,591.4
2019-05-26T08:23:47.484Z,591.8
2019-05-26T08:24:49.923Z,591.6
2019-05-26T08:25:52.887Z,591.9
2019-05-26T08:26:55.563Z,591.7
2019-05-26T08:27:57.435Z,592.1
2019-05-26T08:29:00.051Z,592.1
2019-05-26T08:30:01.978Z,592.2
2019-05-26T08:31:04.134Z,592.1
2019-05-26T08:32:06.293Z,592.2
2019-05-26T08:33:08.723Z,591.9
2019-05-26T08:34:10.884Z,592.4
2019-05-26T08:35:13.503Z,592.1
2019-05-26T08:36:15.935Z,592
2019-05-26T08:37:18.362Z,592.1
2019-05-26T08:38:20.859Z,592.1
2019-05-26T08:39:23.281Z,592
2019-05-26T08:40:25.434Z,592
2019-05-26T08:41:28.035Z,592.1
2019-05-26T08:43:35.791Z,592.4
2019-05-26T08:44:37.390Z,592.4
2019-05-26T08:45:38.711Z,592.3
2019-05-26T08:46:41.151Z,592.2
2019-05-26T08:47:44.060Z,592.4
2019-05-26T08:48:46.484Z,592.2
2019-05-26T08:49:48.675Z,592.6
2019-05-26T08:50:51.715Z,592.5
2019-05-26T08:51:54.755Z,592.4
2019-05-26T08:52:57.178Z,592.6
2019-05-26T08:53:59.378Z,592.3
2019-05-26T08:55:01.837Z,592.3
2019-05-26T08:56:04.001Z,592.7
2019-05-26T08:57:06.169Z,592.7
2019-05-26T08:58:08.605Z,592.7
2019-05-26T08:59:11.035Z,592.8
2019-05-26T09:00:13.252Z,592.5
2019-05-26T09:01:15.676Z,592.4
2019-05-26T09:02:17.844Z,592.8
2019-05-26T09:03:20.362Z,593.2
2019-05-26T09:04:22.557Z,593.3
2019-05-26T09:05:24.769Z,593
2019-05-26T09:06:26.945Z,592.6
2019-05-26T09:07:29.390Z,593
2019-05-26T09:08:31.003Z,592.9
2019-05-26T09:09:33.433Z,592.9
2019-05-26T09:10:35.595Z,593.1
2019-05-26T09:11:37.480Z,592.9
2019-05-26T09:12:39.905Z,593
2019-05-26T09:13:42.104Z,593.4
2019-05-26T09:14:44.601Z,593.5
2019-05-26T09:15:47.033Z,593.6
2019-05-26T09:16:49.462Z,593.5
2019-05-26T09:17:51.348Z,593.3
2019-05-26T09:18:53.517Z,593.5
2019-05-26T09:19:55.959Z,593.4
2019-05-26T09:20:58.140Z,593.4
2019-05-26T09:22:00.293Z,593.5
2019-05-26T09:23:02.747Z,593.3
2019-05-26T09:24:04.945Z,593.2
2019-05-26T09:25:07.376Z,593.7
2019-05-26T09:26:09.801Z,593.9
2019-05-26T09:27:11.998Z,593.4
2019-05-26T09:28:14.434Z,593.6
2019-05-26T09:29:16.600Z,593.8
2019-05-26T09:30:18.486Z,594
2019-05-26T09:31:20.364Z,594.3
2019-05-26T09:32:22.807Z,594.7
2019-05-26T09:33:24.974Z,594.2
2019-05-26T09:34:27.415Z,594.4
2019-05-26T09:35:29.913Z,594.2
2019-05-26T09:36:32.082Z,594.2
2019-05-26T09:37:34.569Z,594.3
2019-05-26T09:38:37.004Z,594.6
2019-05-26T09:39:39.525Z,594.6
2019-05-26T09:40:41.722Z,594.7
2019-05-26T09:41:43.861Z,594.8
2019-05-26T09:42:45.737Z,594.8
2019-05-26T09:43:47.963Z,595.4
2019-05-26T09:44:49.923Z,595.1
2019-05-26T09:45:51.845Z,595.3
2019-05-26T09:46:54.295Z,595.5
2019-05-26T09:47:56.723Z,595.6
2019-05-26T09:50:03.589Z,595.8
2019-05-26T09:51:06.022Z,596
2019-05-26T09:52:08.485Z,595.7
2019-05-26T09:53:10.908Z,595.9
2019-05-26T09:54:14.258Z,595.9
2019-05-26T09:55:16.152Z,595.9
2019-05-26T09:56:18.333Z,595.9
2019-05-26T09:57:20.504Z,595.6
2019-05-26T09:58:22.945Z,595.8
2019-05-26T09:59:25.363Z,595.8
2019-05-26T10:00:27.545Z,596.3
2019-05-26T10:01:29.702Z,596.1
2019-05-26T10:02:32.155Z,596.2
2019-05-26T10:03:34.575Z,596
2019-05-26T10:04:36.730Z,595.9
2019-05-26T10:05:39.154Z,596.2
2019-05-26T10:06:41.621Z,596
2019-05-26T10:07:43.221Z,596.3
2019-05-26T10:08:45.666Z,596.1
2019-05-26T10:09:48.097Z,596.1
2019-05-26T10:10:50.023Z,596.1
2019-05-26T10:11:52.467Z,596
2019-05-26T10:12:54.684Z,596.4
2019-05-26T10:13:57.118Z,595.7
2019-05-26T10:14:59.276Z,596.2
2019-05-26T10:16:01.712Z,596.2
2019-05-26T10:17:03.871Z,596.1
2019-05-26T10:18:06.353Z,595.8
2019-05-26T10:19:08.529Z,596.2
2019-05-26T10:20:10.637Z,596.4
2019-05-26T10:21:13.634Z,596.5
2019-05-26T10:22:16.685Z,596.1
2019-05-26T10:23:18.846Z,596.5
2019-05-26T10:24:20.444Z,596.5
2019-05-26T10:25:22.785Z,596.2
2019-05-26T10:26:25.219Z,596.2
2019-05-26T10:27:27.379Z,596.2
2019-05-26T10:28:30.091Z,596.5
2019-05-26T10:29:32.706Z,596.5
2019-05-26T10:30:35.166Z,596.3
2019-05-26T10:31:37.058Z,596.8
2019-05-26T10:32:39.496Z,596.9
2019-05-26T10:33:41.940Z,596.9
2019-05-26T10:34:44.372Z,597.2
2019-05-26T10:35:46.538Z,597.3
2019-05-26T10:36:49.576Z,597.3
2019-05-26T10:37:52.004Z,596.9
2019-05-26T10:38:54.612Z,596.9
2019-05-26T10:39:57.038Z,596.6
2019-05-26T10:40:58.920Z,597.1
2019-05-26T10:42:01.544Z,597.3
2019-05-26T10:43:04.044Z,597.2
2019-05-26T10:44:06.200Z,597.5
2019-05-26T10:45:08.640Z,597.5
2019-05-26T10:46:11.577Z,597.1
2019-05-26T10:47:14.346Z,597.1
2019-05-26T10:48:16.984Z,596.8
2019-05-26T10:49:19.895Z,597.6
2019-05-26T10:50:21.842Z,597.1
2019-05-26T10:51:23.976Z,597.5
2019-05-26T10:52:26.414Z,597.2
2019-05-26T10:53:28.853Z,598
2019-05-26T10:54:31.551Z,597.7
2019-05-26T10:55:33.976Z,597.5
2019-05-26T10:56:36.423Z,597.9
2019-05-26T10:57:38.845Z,598.1
2019-05-26T10:58:40.740Z,598
2019-05-26T10:59:43.171Z,597.4
2019-05-26T11:00:45.612Z,597.6
2019-05-26T11:01:48.058Z,597.6
2019-05-26T11:02:50.510Z,597.9
2019-05-26T11:03:52.935Z,597.2
2019-05-26T11:04:55.416Z,597.5
2019-05-26T11:05:57.846Z,597
2019-05-26T11:07:00.293Z,597.4
2019-05-26T11:08:02.516Z,597.7
2019-05-26T11:09:04.670Z,597.6
2019-05-26T11:10:06.873Z,597.7
2019-05-26T11:11:09.282Z,598.1
2019-05-26T11:12:11.444Z,598.2
2019-05-26T11:13:13.610Z,598.3
2019-05-26T11:14:15.778Z,598.5
2019-05-26T11:15:17.965Z,598.5
2019-05-26T11:16:20.126Z,598.6
2019-05-26T11:17:22.545Z,598.5
2019-05-26T11:18:24.962Z,598.5
2019-05-26T11:19:27.395Z,598.7
2019-05-26T11:20:29.542Z,598.7
2019-05-26T11:21:31.687Z,599.1
2019-05-26T11:22:33.606Z,599.1
2019-05-26T11:23:35.893Z,599.5
2019-05-26T11:24:39.046Z,599.3
2019-05-26T11:25:41.493Z,599.8
2019-05-26T11:26:43.995Z,600.1
2019-05-26T11:27:46.421Z,600.4
2019-05-26T11:28:48.290Z,600.2
2019-05-26T11:29:50.446Z,600.1
2019-05-26T11:30:52.912Z,600.1
2019-05-26T11:31:55.341Z,600
2019-05-26T11:34:03.374Z,600.4
2019-05-26T11:35:05.827Z,599.8
2019-05-26T11:36:08.266Z,600.4
2019-05-26T11:37:10.735Z,600.5
2019-05-26T11:38:12.895Z,600.3
2019-05-26T11:39:15.324Z,600.4
2019-05-26T11:40:17.958Z,600.1
2019-05-26T11:41:20.404Z,600.5
2019-05-26T11:42:22.580Z,600.2
2019-05-26T11:43:25.355Z,600.3
2019-05-26T11:44:27.513Z,600.5
2019-05-26T11:45:29.727Z,600.7
2019-05-26T11:46:32.164Z,601
2019-05-26T11:47:34.613Z,601.2
2019-05-26T11:49:42.236Z,600.9
2019-05-26T11:50:44.678Z,600.9
2019-05-26T11:51:46.837Z,600.9
2019-05-26T11:52:49.013Z,600.9
2019-05-26T11:53:51.163Z,601.1
2019-05-26T11:54:53.312Z,600.9
2019-05-26T11:55:55.751Z,601.1
2019-05-26T11:56:57.705Z,601.1
2019-05-26T11:58:00.229Z,601.4
2019-05-26T11:59:02.732Z,601.2
2019-05-26T12:00:05.059Z,601.4
2019-05-26T12:01:07.217Z,601.6
2019-05-26T12:02:09.644Z,601.7
2019-05-26T12:03:12.084Z,601.4
2019-05-26T12:04:14.534Z,601.5
2019-05-26T12:06:21.708Z,601.3
2019-05-26T12:07:24.345Z,601.6
2019-05-26T12:08:26.565Z,601.6
2019-05-26T12:09:28.925Z,601.8
2019-05-26T12:10:31.395Z,602.4
2019-05-26T12:11:33.835Z,602.2
2019-05-26T12:12:36.471Z,602.1
2019-05-26T12:13:39.299Z,602.2
2019-05-26T12:14:41.945Z,602.7
2019-05-26T12:15:44.428Z,602.4
2019-05-26T12:16:46.619Z,603.1
2019-05-26T12:17:48.830Z,603.1
2019-05-26T12:18:50.968Z,603
2019-05-26T12:19:53.403Z,602.8
2019-05-26T12:20:55.572Z,603.3
2019-05-26T12:21:58.024Z,603.5
2019-05-26T12:23:00.964Z,603.3
2019-05-26T12:24:03.111Z,603.6
2019-05-26T12:25:05.002Z,604.2
2019-05-26T12:26:07.177Z,604.1
2019-05-26T12:27:09.363Z,604.1
2019-05-26T12:28:12.089Z,604.2
2019-05-26T12:29:14.257Z,604.2
2019-05-26T12:30:16.419Z,604.5
2019-05-26T12:31:18.834Z,604.5
2019-05-26T12:32:21.254Z,604.5
2019-05-26T12:33:23.133Z,604.7
2019-05-26T12:34:25.475Z,604.9
2019-05-26T12:35:27.903Z,605.1
2019-05-26T12:36:30.352Z,605
2019-05-26T12:37:32.838Z,604.9
2019-05-26T12:38:35.010Z,604.8
2019-05-26T12:39:37.672Z,605.7
2019-05-26T12:40:40.133Z,605.5
2019-05-26T12:41:42.664Z,605.4
2019-05-26T12:42:44.844Z,605.7
2019-05-26T12:43:47.358Z,605.6
2019-05-26T12:45:54.278Z,606.2
2019-05-26T12:46:56.780Z,605.6
2019-05-26T12:47:59.227Z,605.7
2019-05-26T12:49:01.674Z,606.1
2019-05-26T12:50:04.720Z,606.2
2019-05-26T12:51:06.881Z,605.9
2019-05-26T12:52:09.313Z,606.3
2019-05-26T12:53:11.545Z,606
2019-05-26T12:54:13.976Z,606.1
2019-05-26T12:55:16.405Z,606.1
2019-05-26T12:56:18.564Z,605.6
2019-05-26T12:57:21.012Z,606
2019-05-26T12:58:23.164Z,606
2019-05-26T12:59:25.600Z,605.9
2019-05-26T13:00:28.029Z,605.7
2019-05-26T13:01:31.073Z,606
2019-05-26T13:02:33.494Z,606
2019-05-26T13:03:35.931Z,606
2019-05-26T13:04:38.363Z,606.1
2019-05-26T13:05:40.519Z,606.6
2019-05-26T13:06:42.944Z,606.4
2019-05-26T13:07:45.104Z,606.5
2019-05-26T13:08:47.265Z,607.1
2019-05-26T13:09:49.702Z,606.8
2019-05-26T13:10:51.874Z,607
2019-05-26T13:11:54.300Z,607
2019-05-26T13:12:56.734Z,607.2
2019-05-26T13:14:00.244Z,607
2019-05-26T13:16:07.758Z,607
2019-05-26T13:17:10.291Z,606.7
2019-05-26T13:18:12.441Z,607
2019-05-26T13:19:14.984Z,607
2019-05-26T13:20:17.421Z,607
2019-05-26T13:21:19.853Z,607.5
2019-05-26T13:22:22.288Z,607.6
2019-05-26T13:23:24.802Z,607.8
2019-05-26T13:24:27.080Z,608
2019-05-26T13:25:29.830Z,607.2
2019-05-26T13:26:32.261Z,608
2019-05-26T13:27:34.694Z,608
2019-05-26T13:28:36.858Z,608.1
2019-05-26T13:29:39.296Z,607.6
2019-05-26T13:30:41.714Z,608.2
2019-05-26T13:31:44.502Z,608.2
2019-05-26T13:32:46.934Z,608.1
2019-05-26T13:33:49.378Z,608.5
2019-05-26T13:34:51.794Z,608.6
2019-05-26T13:35:53.868Z,608.9
2019-05-26T13:36:56.000Z,608.9
2019-05-26T13:37:58.430Z,608.8
2019-05-26T13:39:00.943Z,608.6
2019-05-26T13:40:02.891Z,608.9
2019-05-26T13:41:05.373Z,608.9
2019-05-26T13:42:06.979Z,608.4
2019-05-26T13:43:09.146Z,608.6
2019-05-26T13:44:11.571Z,609
2019-05-26T13:46:18.992Z,609.1
2019-05-26T13:48:26.516Z,608.9
2019-05-26T13:49:28.959Z,609.4
2019-05-26T13:50:32.036Z,609.6
2019-05-26T13:51:34.205Z,609.5
2019-05-26T13:52:36.724Z,609.6